Terminal Aerodrome Forecast
Issued by NWS Twin Cities, MN

Home | Current Version | Previous Version | Graphics & Text | Print | Product List | Glossary On
Versions: 1 2 3 4 5 6 7 8 9 10 11 12
917
FTUS43 KMPX 212334
TAFEAU
TAF
KEAU 212334Z 2200/2224 12008KT P6SM SKC
     FM220200 14008KT P6SM SCT100
     FM220900 16005KT 4SM BR SCT250
     FM221400 18009KT P6SM SCT250
     FM221800 17009G17KT P6SM SKC
     FM222000 17011KT P6SM SKC=

USA.gov is the U.S. government's official web portal to all federal, state and local government web resources and services.